createdAt,value
2019-02-08T00:02:51.517Z,100021.43
2019-02-08T00:07:57.152Z,100019.45
2019-02-08T00:13:03.246Z,100025.94
2019-02-08T00:18:08.487Z,100024.63
2019-02-08T00:23:13.839Z,100018.88
2019-02-08T00:28:20.867Z,100030.94
2019-02-08T00:33:27.718Z,100018.88
2019-02-08T00:38:33.394Z,100025.41
2019-02-08T00:43:39.664Z,100028.31
2019-02-08T00:48:45.288Z,100030.20
2019-02-08T00:53:50.926Z,100030.61
2019-02-08T00:58:56.110Z,100038.98
2019-02-08T01:04:02.283Z,100043.34
2019-02-08T01:09:10.037Z,100047.92
2019-02-08T01:14:15.252Z,100053.12
2019-02-08T01:19:20.424Z,100049.14
2019-02-08T01:24:27.318Z,100048.70
2019-02-08T01:29:32.669Z,100060.31
2019-02-08T01:34:37.888Z,100054.48
2019-02-08T01:39:43.122Z,100061.05
2019-02-08T01:44:48.485Z,100052.36
2019-02-08T01:49:53.744Z,100064.63
2019-02-08T01:55:03.856Z,100082.39
2019-02-08T02:00:14.945Z,100076.08
2019-02-08T02:05:20.168Z,100082.15
2019-02-08T02:10:31.529Z,100089.86
2019-02-08T02:15:36.669Z,100097.30
2019-02-08T02:20:42.849Z,100092.40
2019-02-08T02:25:49.619Z,100086.33
2019-02-08T02:30:54.609Z,100088.59
2019-02-08T02:36:00.753Z,100074.89
2019-02-08T02:41:06.186Z,100068.53
2019-02-08T02:46:11.536Z,100074.89
2019-02-08T02:51:16.605Z,100074.80
2019-02-08T02:56:21.611Z,100074.34
2019-02-08T03:01:26.643Z,100099.45
2019-02-08T03:06:31.679Z,100097.28
2019-02-08T03:11:36.750Z,100115.11
2019-02-08T03:16:41.794Z,100121.52
2019-02-08T03:21:46.845Z,100104.91
2019-02-08T03:26:52.248Z,100106.14
2019-02-08T03:31:57.221Z,100099.83
2019-02-08T03:37:20.421Z,100095.44
2019-02-08T03:42:25.395Z,100106.28
2019-02-08T03:47:30.409Z,100116.73
2019-02-08T03:52:35.461Z,100118.58
2019-02-08T03:57:40.597Z,100113.62
2019-02-08T04:02:46.300Z,100110.42
2019-02-08T04:07:51.475Z,100107.59
2019-02-08T04:12:56.846Z,100104.96
2019-02-08T04:18:01.856Z,100121.91
2019-02-08T04:23:07.217Z,100120.35
2019-02-08T04:28:12.256Z,100126.88
2019-02-08T04:33:17.362Z,100128.10
2019-02-08T04:38:22.383Z,100143.33
2019-02-08T04:43:27.375Z,100131.91
2019-02-08T04:48:32.357Z,100141.67
2019-02-08T04:53:37.623Z,100145.13
2019-02-08T04:58:42.848Z,100149.55
2019-02-08T05:03:47.907Z,100145.87
2019-02-08T05:08:52.973Z,100147.18
2019-02-08T05:13:59.545Z,100146.73
2019-02-08T05:19:04.573Z,100149.20
2019-02-08T05:24:09.685Z,100144.77
2019-02-08T05:29:15.537Z,100157.05
2019-02-08T05:34:20.545Z,100141.05
2019-02-08T05:39:25.623Z,100139.97
2019-02-08T05:44:30.649Z,100133.85
2019-02-08T05:49:35.882Z,100132.80
2019-02-08T05:54:41.099Z,100128.07
2019-02-08T05:59:46.256Z,100135.37
2019-02-08T06:04:51.445Z,100129.26
2019-02-08T06:09:56.425Z,100138.61
2019-02-08T06:15:01.496Z,100136.67
2019-02-08T06:20:07.759Z,100123.01
2019-02-08T06:25:13.042Z,100134.34
2019-02-08T06:30:20.011Z,100140.41
2019-02-08T06:35:25.561Z,100148.87
2019-02-08T06:40:32.597Z,100146.81
2019-02-08T06:45:38.067Z,100152.56
2019-02-08T06:50:43.607Z,100150.55
2019-02-08T06:55:53.685Z,100152.89
2019-02-08T07:01:13.346Z,100149.82
2019-02-08T07:06:46.031Z,100146.98
2019-02-08T07:12:08.763Z,100141.81
2019-02-08T07:17:28.391Z,100163.36
2019-02-08T07:22:51.662Z,100172.79
2019-02-08T07:28:10.110Z,100166.11
2019-02-08T07:33:32.849Z,100154.99
2019-02-08T07:38:47.759Z,100162.02
2019-02-08T07:44:11.053Z,100165.91
2019-02-08T07:49:38.041Z,100179.14
2019-02-08T07:55:00.689Z,100181.67
2019-02-08T08:00:26.434Z,100174.19
2019-02-08T08:05:42.141Z,100162.96
2019-02-08T08:10:55.596Z,100166.83
2019-02-08T08:16:08.561Z,100171.70
2019-02-08T08:21:39.200Z,100184.25
2019-02-08T08:27:03.066Z,100190.46
2019-02-08T08:32:17.068Z,100196.35
2019-02-08T08:37:51.576Z,100188.70
2019-02-08T08:43:08.915Z,100190.88
2019-02-08T08:48:53.555Z,100194.95
2019-02-08T08:54:47.555Z,100196.75
2019-02-08T09:00:21.999Z,100187.45
2019-02-08T09:05:54.411Z,100177.63
2019-02-08T09:11:26.427Z,100171.19
2019-02-08T09:16:46.532Z,100168.86
2019-02-08T09:22:09.649Z,100150.00
2019-02-08T09:27:41.579Z,100143.22
2019-02-08T09:33:22.233Z,100146.52
2019-02-08T09:38:53.260Z,100143.60
2019-02-08T09:44:49.497Z,100141.09
2019-02-08T09:50:45.813Z,100154.38
2019-02-08T09:56:12.692Z,100152.36
2019-02-08T10:01:46.343Z,100149.56
2019-02-08T10:07:09.223Z,100140.63
2019-02-08T10:13:07.423Z,100133.81
2019-02-08T10:18:49.401Z,100135.70
2019-02-08T10:24:25.504Z,100133.37
2019-02-08T10:30:06.513Z,100132.86
2019-02-08T10:36:00.371Z,100131.81
2019-02-08T10:41:30.613Z,100138.22
2019-02-08T10:47:13.196Z,100144.73
2019-02-08T10:53:03.025Z,100122.30
2019-02-08T10:59:10.463Z,100122.77
2019-02-08T11:04:51.471Z,100118.84
2019-02-08T11:10:31.461Z,100113.80
2019-02-08T11:15:49.730Z,100117.70
2019-02-08T11:20:54.771Z,100113.02
2019-02-08T11:25:58.862Z,100105.20
2019-02-08T11:31:02.790Z,100127.73
2019-02-08T11:36:06.858Z,100126.67
2019-02-08T11:41:10.877Z,100125.94
2019-02-08T11:46:14.943Z,100120.02
2019-02-08T11:51:20.183Z,100117.45
2019-02-08T11:56:30.109Z,100116.66
2019-02-08T12:01:37.248Z,100113.30
2019-02-08T12:06:43.139Z,100116.07
2019-02-08T12:11:48.786Z,100113.52
2019-02-08T12:16:54.903Z,100110.39
2019-02-08T12:22:00.294Z,100099.54
2019-02-08T12:27:05.487Z,100095.63
2019-02-08T12:32:10.659Z,100091.18
2019-02-08T12:37:15.751Z,100088.37
2019-02-08T12:42:21.135Z,100086.27
2019-02-08T12:47:26.325Z,100081.64
2019-02-08T12:52:31.344Z,100077.24
2019-02-08T12:57:36.383Z,100073.50
2019-02-08T13:02:41.948Z,100058.24
2019-02-08T13:07:47.585Z,100057.56
2019-02-08T13:12:53.102Z,100050.49
2019-02-08T13:17:58.593Z,100047.61
2019-02-08T13:23:03.669Z,100032.41
2019-02-08T13:28:08.827Z,100024.81
2019-02-08T13:33:13.871Z,100018.49
2019-02-08T13:38:18.947Z,100011.32
2019-02-08T13:43:24.135Z,100011.44
2019-02-08T13:48:29.515Z,100013.93
2019-02-08T13:53:34.544Z,100010.83
2019-02-08T13:58:38.563Z,100006.53
2019-02-08T14:03:43.475Z,99996.09
2019-02-08T14:08:48.497Z,99996.68
2019-02-08T14:13:53.939Z,99988.91
2019-02-08T14:18:58.961Z,99993.66
2019-02-08T14:24:04.037Z,99985.77
2019-02-08T14:29:10.529Z,99986.50
2019-02-08T14:34:15.661Z,99988.66
2019-02-08T14:39:21.003Z,99980.45
2019-02-08T14:44:27.013Z,99959.62
2019-02-08T14:49:33.526Z,99952.72
2019-02-08T14:54:40.027Z,99948.46
2019-02-08T14:59:46.170Z,99959.11
2019-02-08T15:04:51.641Z,99956.63
2019-02-08T15:09:56.761Z,99957.36
2019-02-08T15:15:01.853Z,99943.02
2019-02-08T15:20:10.871Z,99945.14
2019-02-08T15:25:16.922Z,99941.55
2019-02-08T15:30:23.923Z,99935.62
2019-02-08T15:35:29.654Z,99924.06
2019-02-08T15:40:41.417Z,99925.50
2019-02-08T15:45:58.178Z,99920.05
2019-02-08T15:51:04.049Z,99919.57
2019-02-08T15:56:19.801Z,99931.56
2019-02-08T16:01:26.130Z,99937.18
2019-02-08T16:06:32.968Z,99930.09
2019-02-08T16:11:38.355Z,99940.99
2019-02-08T16:16:43.663Z,99941.02
2019-02-08T16:21:49.268Z,99927.81
2019-02-08T16:27:00.113Z,99927.53
2019-02-08T16:32:05.739Z,99921.16
2019-02-08T16:37:11.553Z,99901.84
2019-02-08T16:42:16.725Z,99903.44
2019-02-08T16:47:23.444Z,99892.12
2019-02-08T16:52:28.912Z,99889.76
2019-02-08T16:57:34.969Z,99896.91
2019-02-08T17:02:40.119Z,99887.67
2019-02-08T17:07:45.798Z,99881.34
2019-02-08T17:12:50.849Z,99867.08
2019-02-08T17:18:01.100Z,99864.42
2019-02-08T17:23:06.306Z,99855.98
2019-02-08T17:28:12.174Z,99840.16
2019-02-08T17:33:17.310Z,99844.38
2019-02-08T17:38:23.241Z,99840.15
2019-02-08T17:43:28.675Z,99841.48
2019-02-08T17:48:33.755Z,99831.98
2019-02-08T17:53:40.495Z,99836.20
2019-02-08T17:58:47.975Z,99824.91
2019-02-08T18:03:53.528Z,99815.41
2019-02-08T18:08:58.855Z,99813.59
2019-02-08T18:14:09.781Z,99803.81
2019-02-08T18:19:26.923Z,99801.44
2019-02-08T18:24:32.746Z,99794.31
2019-02-08T18:29:38.503Z,99803.03
2019-02-08T18:34:45.661Z,99785.89
2019-02-08T18:39:54.407Z,99774.80
2019-02-08T18:45:07.228Z,99778.27
2019-02-08T18:50:17.027Z,99758.70
2019-02-08T18:55:22.959Z,99772.45
2019-02-08T19:00:40.069Z,99753.20
2019-02-08T19:05:42.360Z,99743.70
2019-02-08T19:10:48.564Z,99731.06
2019-02-08T19:15:54.577Z,99729.48
2019-02-08T19:21:00.813Z,99718.39
2019-02-08T19:26:11.199Z,99711.79
2019-02-08T19:31:16.532Z,99706.00
2019-02-08T19:36:21.855Z,99695.18
2019-02-08T19:41:27.086Z,99690.95
2019-02-08T19:46:32.733Z,99688.84
2019-02-08T19:51:38.145Z,99681.71
2019-02-08T19:56:43.583Z,99682.48
2019-02-08T20:01:48.789Z,99674.56
2019-02-08T20:06:54.404Z,99673.80
2019-02-08T20:11:59.463Z,99670.85
2019-02-08T20:17:05.255Z,99674.85
2019-02-08T20:22:12.494Z,99652.41
2019-02-08T20:27:17.787Z,99640.27
2019-02-08T20:32:22.949Z,99625.52
2019-02-08T20:37:33.214Z,99613.86
2019-02-08T20:42:38.264Z,99619.11
2019-02-08T20:47:43.513Z,99603.57
2019-02-08T20:52:49.503Z,99607.25
2019-02-08T20:57:54.674Z,99608.08
2019-02-08T21:03:00.455Z,99590.89
2019-02-08T21:08:07.086Z,99591.66
2019-02-08T21:13:12.491Z,99592.17
2019-02-08T21:18:17.796Z,99581.89
2019-02-08T21:23:23.889Z,99571.34
2019-02-08T21:28:31.163Z,99577.45
2019-02-08T21:33:37.507Z,99564.00
2019-02-08T21:38:43.419Z,99562.98
2019-02-08T21:43:48.817Z,99561.91
2019-02-08T21:48:59.450Z,99547.71
2019-02-08T21:54:11.299Z,99554.82
2019-02-08T21:59:16.827Z,99535.03
2019-02-08T22:04:22.957Z,99540.59
2019-02-08T22:09:29.305Z,99526.64
2019-02-08T22:14:43.721Z,99521.37
2019-02-08T22:19:48.989Z,99516.34
2019-02-08T22:24:54.515Z,99510.80
2019-02-08T22:29:59.507Z,99501.88
2019-02-08T22:35:04.862Z,99488.66
2019-02-08T22:40:12.158Z,99488.88
2019-02-08T22:45:31.644Z,99485.17
2019-02-08T22:50:36.810Z,99480.45
2019-02-08T22:55:41.892Z,99470.72
2019-02-08T23:01:26.422Z,99454.56
2019-02-08T23:06:31.551Z,99441.64
2019-02-08T23:11:36.554Z,99438.19
2019-02-08T23:16:51.979Z,99430.25
2019-02-08T23:21:57.082Z,99424.97
2019-02-08T23:27:02.327Z,99408.09
2019-02-08T23:32:07.482Z,99400.70
2019-02-08T23:37:12.677Z,99379.02
2019-02-08T23:42:17.804Z,99363.22
2019-02-08T23:47:23.038Z,99362.99
2019-02-08T23:52:28.266Z,99363.06
2019-02-08T23:57:33.467Z,99361.27
